createdAt,value
2019-03-20T00:00:50.771Z,5.60
2019-03-20T00:03:23.757Z,5.60
2019-03-20T00:05:56.189Z,5.60
2019-03-20T00:08:30.327Z,5.50
2019-03-20T00:11:02.870Z,5.60
2019-03-20T00:13:35.090Z,5.60
2019-03-20T00:16:07.811Z,5.50
2019-03-20T00:18:40.249Z,5.50
2019-03-20T00:21:12.770Z,5.40
2019-03-20T00:23:47.109Z,5.40
2019-03-20T00:26:20.011Z,5.30
2019-03-20T00:28:53.269Z,5.30
2019-03-20T00:31:26.809Z,5.30
2019-03-20T00:33:59.189Z,5.30
2019-03-20T00:36:31.249Z,5.30
2019-03-20T00:39:04.829Z,5.30
2019-03-20T00:41:38.169Z,5.30
2019-03-20T00:44:10.488Z,5.20
2019-03-20T00:46:43.451Z,5.20
2019-03-20T00:49:16.129Z,5.20
2019-03-20T00:51:48.448Z,5.20
2019-03-20T00:54:20.737Z,5.20
2019-03-20T00:56:53.589Z,5.20
2019-03-20T00:59:26.729Z,5.20
2019-03-20T01:01:59.489Z,5.20
2019-03-20T01:04:32.088Z,5.20
2019-03-20T01:07:04.468Z,5.10
2019-03-20T01:09:37.292Z,5.20
2019-03-20T01:12:09.649Z,5.20
2019-03-20T01:14:42.249Z,5.10
2019-03-20T01:17:15.029Z,5.10
2019-03-20T01:19:47.331Z,5.10
2019-03-20T01:22:20.411Z,5.10
2019-03-20T01:24:53.892Z,5.10
2019-03-20T01:27:27.069Z,5.10
2019-03-20T01:29:59.969Z,5.10
2019-03-20T01:32:32.068Z,5.10
2019-03-20T01:35:04.889Z,5.10
2019-03-20T01:37:37.449Z,5.00
2019-03-20T01:40:09.988Z,5.00
2019-03-20T01:42:42.790Z,5.00
2019-03-20T01:45:15.602Z,5.00
2019-03-20T01:47:48.710Z,5.00
2019-03-20T01:50:21.571Z,5.00
2019-03-20T01:52:54.609Z,5.00
2019-03-20T01:55:27.908Z,4.90
2019-03-20T01:58:00.989Z,5.00
2019-03-20T02:00:33.869Z,4.90
2019-03-20T02:03:07.009Z,4.90
2019-03-20T02:05:39.429Z,4.90
2019-03-20T02:08:12.929Z,4.90
2019-03-20T02:10:46.114Z,4.80
2019-03-20T02:13:18.849Z,4.90
2019-03-20T02:15:51.713Z,4.80
2019-03-20T02:18:24.428Z,4.90
2019-03-20T02:20:57.207Z,4.90
2019-03-20T02:23:30.209Z,4.80
2019-03-20T02:26:02.791Z,4.80
2019-03-20T02:28:35.289Z,4.70
2019-03-20T02:31:07.751Z,4.70
2019-03-20T02:33:41.050Z,4.70
2019-03-20T02:36:13.590Z,4.70
2019-03-20T02:38:46.370Z,4.70
2019-03-20T02:41:20.236Z,4.60
2019-03-20T02:43:52.630Z,4.60
2019-03-20T02:46:25.758Z,4.60
2019-03-20T02:48:59.332Z,4.60
2019-03-20T02:51:32.630Z,4.70
2019-03-20T02:54:04.891Z,4.70
2019-03-20T02:56:37.569Z,4.60
2019-03-20T02:59:10.369Z,4.60
2019-03-20T03:01:42.811Z,4.60
2019-03-20T03:04:14.970Z,4.50
2019-03-20T03:06:48.610Z,4.40
2019-03-20T03:09:21.993Z,4.40
2019-03-20T03:11:55.310Z,4.30
2019-03-20T03:14:28.974Z,4.30
2019-03-20T03:17:02.249Z,4.30
2019-03-20T03:19:34.656Z,4.30
2019-03-20T03:22:07.185Z,4.30
2019-03-20T03:24:40.569Z,4.30
2019-03-20T03:27:13.629Z,4.30
2019-03-20T03:29:46.488Z,4.30
2019-03-20T03:32:19.010Z,4.30
2019-03-20T03:34:52.134Z,4.30
2019-03-20T03:37:25.431Z,4.30
2019-03-20T03:39:58.771Z,4.30
2019-03-20T03:42:31.330Z,4.30
2019-03-20T03:45:04.011Z,4.30
2019-03-20T03:47:37.050Z,4.40
2019-03-20T03:50:10.136Z,4.40
2019-03-20T03:52:42.610Z,4.30
2019-03-20T03:55:15.954Z,4.20
2019-03-20T03:57:49.290Z,4.20
2019-03-20T04:00:22.453Z,4.10
2019-03-20T04:02:55.354Z,4.10
2019-03-20T04:05:27.909Z,4.20
2019-03-20T04:08:00.549Z,4.30
2019-03-20T04:10:33.070Z,4.20
2019-03-20T04:13:06.892Z,4.20
2019-03-20T04:15:39.464Z,4.10
2019-03-20T04:18:11.937Z,4.10
2019-03-20T04:20:44.651Z,4.00
2019-03-20T04:23:17.750Z,4.00
2019-03-20T04:25:49.949Z,4.00
2019-03-20T04:28:22.491Z,4.10
2019-03-20T04:30:55.437Z,4.10
2019-03-20T04:33:28.553Z,4.10
2019-03-20T04:36:00.950Z,4.10
2019-03-20T04:38:33.398Z,4.00
2019-03-20T04:41:06.010Z,3.90
2019-03-20T04:43:38.470Z,4.00
2019-03-20T04:46:11.009Z,3.90
2019-03-20T04:48:43.272Z,3.90
2019-03-20T04:51:15.550Z,3.90
2019-03-20T04:53:48.229Z,3.90
2019-03-20T04:56:22.109Z,3.90
2019-03-20T04:58:55.289Z,4.00
2019-03-20T05:01:28.450Z,4.00
2019-03-20T05:04:01.249Z,4.00
2019-03-20T05:06:33.969Z,4.00
2019-03-20T05:09:07.769Z,4.00
2019-03-20T05:11:41.349Z,3.90
2019-03-20T05:14:13.810Z,4.00
2019-03-20T05:16:46.909Z,4.00
2019-03-20T05:19:19.789Z,4.00
2019-03-20T05:21:52.153Z,4.10
2019-03-20T05:24:24.869Z,4.10
2019-03-20T05:26:57.910Z,4.00
2019-03-20T05:29:30.809Z,4.00
2019-03-20T05:32:03.709Z,3.90
2019-03-20T05:34:36.369Z,3.90
2019-03-20T05:37:10.834Z,4.00
2019-03-20T05:39:43.409Z,4.00
2019-03-20T05:42:16.089Z,4.00
2019-03-20T05:44:49.410Z,3.90
2019-03-20T05:47:23.010Z,3.90
2019-03-20T05:49:55.650Z,4.00
2019-03-20T05:52:28.410Z,4.00
2019-03-20T05:55:01.210Z,4.10
2019-03-20T05:57:33.569Z,4.10
2019-03-20T06:00:06.609Z,4.10
2019-03-20T06:02:39.030Z,4.10
2019-03-20T06:05:11.510Z,4.10
2019-03-20T06:07:44.875Z,4.10
2019-03-20T06:10:17.649Z,4.10
2019-03-20T06:12:50.869Z,4.10
2019-03-20T06:15:24.614Z,4.10
2019-03-20T06:17:58.309Z,4.20
2019-03-20T06:20:33.640Z,4.20
2019-03-20T06:23:05.489Z,4.20
2019-03-20T06:25:38.053Z,4.20
2019-03-20T06:28:10.550Z,4.20
2019-03-20T06:30:43.271Z,4.20
2019-03-20T06:33:15.709Z,4.20
2019-03-20T06:35:48.271Z,4.20
2019-03-20T06:38:21.669Z,4.20
2019-03-20T06:40:55.072Z,4.20
2019-03-20T06:43:27.950Z,4.30
2019-03-20T06:46:02.109Z,4.40
2019-03-20T06:48:34.789Z,4.50
2019-03-20T06:51:09.709Z,4.50
2019-03-20T06:53:42.052Z,4.50
2019-03-20T06:56:15.010Z,4.60
2019-03-20T06:58:47.492Z,4.60
2019-03-20T07:01:31.649Z,4.70
2019-03-20T07:04:31.689Z,4.90
2019-03-20T07:07:11.949Z,5.00
2019-03-20T07:10:08.969Z,5.10
2019-03-20T07:12:41.069Z,5.30
2019-03-20T07:15:13.389Z,5.50
2019-03-20T07:17:46.550Z,5.70
2019-03-20T07:20:19.549Z,5.80
2019-03-20T07:22:52.609Z,5.80
2019-03-20T07:25:25.251Z,5.80
2019-03-20T07:27:58.092Z,5.90
2019-03-20T07:30:30.970Z,6.00
2019-03-20T07:33:04.112Z,6.00
2019-03-20T07:35:37.549Z,6.10
2019-03-20T07:38:10.609Z,6.30
2019-03-20T07:40:42.949Z,6.40
2019-03-20T07:43:15.771Z,6.50
2019-03-20T07:45:49.930Z,6.50
2019-03-20T07:48:22.727Z,6.60
2019-03-20T07:50:55.393Z,6.70
2019-03-20T07:53:27.771Z,6.70
2019-03-20T07:56:00.449Z,6.80
2019-03-20T07:58:34.289Z,7.00
2019-03-20T08:01:07.640Z,7.20
2019-03-20T08:03:39.670Z,7.20
2019-03-20T08:06:12.290Z,7.40
2019-03-20T08:08:43.669Z,7.50
2019-03-20T08:11:17.210Z,7.50
2019-03-20T08:13:49.729Z,7.50
2019-03-20T08:16:22.668Z,7.60
2019-03-20T08:18:55.729Z,7.60
2019-03-20T08:21:28.189Z,7.60
2019-03-20T08:24:01.609Z,7.70
2019-03-20T08:26:33.829Z,7.70
2019-03-20T08:29:06.049Z,7.80
2019-03-20T08:31:38.468Z,7.80
2019-03-20T08:34:10.869Z,7.90
2019-03-20T08:36:44.510Z,7.90
2019-03-20T08:39:17.588Z,7.90
2019-03-20T08:44:41.216Z,8.10
2019-03-20T08:47:29.880Z,8.20
2019-03-20T08:50:02.229Z,8.20
2019-03-20T08:52:34.931Z,8.30
2019-03-20T08:55:08.445Z,8.40
2019-03-20T08:57:51.984Z,8.40
2019-03-20T09:00:25.074Z,8.40
2019-03-20T09:02:57.521Z,8.40
2019-03-20T09:05:30.793Z,8.30
2019-03-20T09:08:04.614Z,8.40
2019-03-20T09:10:38.293Z,8.40
2019-03-20T09:13:10.614Z,8.60
2019-03-20T09:15:43.103Z,8.60
2019-03-20T09:18:16.115Z,8.80
2019-03-20T09:20:48.995Z,8.80
2019-03-20T09:23:21.953Z,8.90
2019-03-20T09:25:54.334Z,8.90
2019-03-20T09:28:27.216Z,8.90
2019-03-20T09:30:59.074Z,9.00
2019-03-20T09:33:32.176Z,9.10
2019-03-20T09:36:04.393Z,9.10
2019-03-20T09:38:43.257Z,9.20
2019-03-20T09:41:11.721Z,9.40
2019-03-20T09:43:45.253Z,9.40
2019-03-20T09:46:17.896Z,9.50
2019-03-20T09:48:50.995Z,9.60
2019-03-20T09:51:24.094Z,9.70
2019-03-20T09:53:57.556Z,9.80
2019-03-20T09:56:29.971Z,10.00
2019-03-20T09:59:02.837Z,10.20
2019-03-20T10:01:35.157Z,10.30
2019-03-20T10:04:08.757Z,10.40
2019-03-20T10:06:40.919Z,10.50
2019-03-20T10:09:13.579Z,10.50
2019-03-20T10:11:47.444Z,10.70
2019-03-20T10:14:19.805Z,10.90
2019-03-20T10:16:53.078Z,11.00
2019-03-20T10:19:25.704Z,10.90
2019-03-20T10:21:59.058Z,10.80
2019-03-20T10:24:31.343Z,10.90
2019-03-20T10:27:04.344Z,10.90
2019-03-20T10:29:37.545Z,10.90
2019-03-20T10:32:13.183Z,11.10
2019-03-20T10:34:45.823Z,11.20
2019-03-20T10:37:18.443Z,11.10
2019-03-20T10:39:50.844Z,11.30
2019-03-20T10:42:23.285Z,11.50
2019-03-20T10:44:55.443Z,11.50
2019-03-20T10:47:28.544Z,11.70
2019-03-20T10:50:01.603Z,11.70
2019-03-20T10:52:34.387Z,11.80
2019-03-20T10:55:07.942Z,12.00
2019-03-20T10:57:40.763Z,12.30
2019-03-20T11:00:16.823Z,12.40
2019-03-20T11:02:49.483Z,12.60
2019-03-20T11:05:21.472Z,12.70
2019-03-20T11:07:54.486Z,12.80
2019-03-20T11:10:28.044Z,12.70
2019-03-20T11:13:00.063Z,12.80
2019-03-20T11:15:32.975Z,12.90
2019-03-20T11:18:05.576Z,13.10
2019-03-20T11:20:37.402Z,13.20
2019-03-20T11:23:10.263Z,13.30
2019-03-20T11:25:43.764Z,13.10
2019-03-20T11:28:17.403Z,13.00
2019-03-20T11:30:50.683Z,13.10
2019-03-20T11:33:23.543Z,13.10
2019-03-20T11:35:56.223Z,13.10
2019-03-20T11:38:28.963Z,12.90
2019-03-20T11:41:02.264Z,12.80
2019-03-20T11:43:34.663Z,13.00
2019-03-20T11:46:07.285Z,13.00
2019-03-20T11:48:39.965Z,12.90
2019-03-20T11:51:13.311Z,12.90
2019-03-20T11:53:45.265Z,13.10
2019-03-20T11:56:18.463Z,13.30
2019-03-20T11:58:51.563Z,13.50
2019-03-20T12:01:23.763Z,13.40
2019-03-20T12:03:56.523Z,13.20
2019-03-20T12:06:29.563Z,13.20
2019-03-20T12:09:01.664Z,13.20
2019-03-20T12:11:45.428Z,13.40
2019-03-20T12:14:09.469Z,13.60
2019-03-20T12:16:42.643Z,14.00
2019-03-20T12:19:15.825Z,14.10
2019-03-20T12:21:48.603Z,14.20
2019-03-20T12:24:21.043Z,14.10
2019-03-20T12:26:54.363Z,13.80
2019-03-20T12:29:27.644Z,14.20
2019-03-20T12:32:00.944Z,14.60
2019-03-20T12:34:33.404Z,14.80
2019-03-20T12:37:05.664Z,14.90
2019-03-20T12:39:38.329Z,15.00
2019-03-20T12:42:11.382Z,15.20
2019-03-20T12:44:44.024Z,15.50
2019-03-20T12:47:16.663Z,15.60
2019-03-20T12:49:49.763Z,15.80
2019-03-20T12:52:21.683Z,16.10
2019-03-20T12:54:55.203Z,16.40
2019-03-20T12:57:29.107Z,16.50
2019-03-20T13:00:02.340Z,16.60
2019-03-20T13:02:35.563Z,17.00
2019-03-20T13:05:09.524Z,17.10
2019-03-20T13:07:42.204Z,17.20
2019-03-20T13:10:15.743Z,17.60
2019-03-20T13:12:48.563Z,17.90
2019-03-20T13:15:22.484Z,17.80
2019-03-20T13:17:55.584Z,17.80
2019-03-20T13:20:27.931Z,17.90
2019-03-20T13:23:11.363Z,17.40
2019-03-20T13:25:44.209Z,17.10
2019-03-20T13:28:17.124Z,16.70
2019-03-20T13:31:01.243Z,16.40
2019-03-20T13:33:34.006Z,16.20
2019-03-20T13:36:07.063Z,15.90
2019-03-20T13:38:40.027Z,15.20
2019-03-20T13:41:12.803Z,14.80
2019-03-20T13:43:45.749Z,14.60
2019-03-20T13:46:19.843Z,14.20
2019-03-20T13:48:53.687Z,13.90
2019-03-20T13:51:25.783Z,13.70
2019-03-20T13:53:58.603Z,13.60
2019-03-20T13:56:30.844Z,13.60
2019-03-20T13:59:04.203Z,13.50
2019-03-20T14:01:37.202Z,13.40
2019-03-20T14:04:09.924Z,13.40
2019-03-20T14:06:42.863Z,13.20
2019-03-20T14:09:16.883Z,13.20
2019-03-20T14:11:50.443Z,13.20
2019-03-20T14:14:23.984Z,13.20
2019-03-20T14:16:57.304Z,13.20
2019-03-20T14:19:30.683Z,13.20
2019-03-20T14:22:02.623Z,13.10
2019-03-20T14:24:36.051Z,13.10
2019-03-20T14:27:09.565Z,13.00
2019-03-20T14:29:42.583Z,13.00
2019-03-20T14:32:14.844Z,13.00
2019-03-20T14:34:48.304Z,13.00
2019-03-20T14:37:21.303Z,13.00
2019-03-20T14:39:53.605Z,13.00
2019-03-20T14:42:26.664Z,12.80
2019-03-20T14:45:00.327Z,12.80
2019-03-20T14:47:41.895Z,12.80
2019-03-20T14:50:06.400Z,12.80
2019-03-20T14:52:39.204Z,12.90
2019-03-20T14:55:13.341Z,12.80
2019-03-20T14:57:46.341Z,12.90
2019-03-20T15:00:24.360Z,13.00
2019-03-20T15:02:57.260Z,13.00
2019-03-20T15:05:30.142Z,12.90
2019-03-20T15:08:02.482Z,13.00
2019-03-20T15:10:45.507Z,13.00
2019-03-20T15:13:09.821Z,13.00
2019-03-20T15:15:51.762Z,12.90
2019-03-20T15:18:25.001Z,12.90
2019-03-20T15:20:58.961Z,12.70
2019-03-20T15:23:32.542Z,12.70
2019-03-20T15:26:05.081Z,12.80
2019-03-20T15:28:37.686Z,12.80
2019-03-20T15:31:10.322Z,12.90
2019-03-20T15:33:43.602Z,12.80
2019-03-20T15:36:15.661Z,12.90
2019-03-20T15:38:49.321Z,12.90
2019-03-20T15:41:22.041Z,12.90
2019-03-20T15:44:02.331Z,12.90
2019-03-20T15:46:30.082Z,12.80
2019-03-20T15:49:03.160Z,12.90
2019-03-20T15:51:35.642Z,12.90
2019-03-20T15:54:08.961Z,13.20
2019-03-20T15:56:42.581Z,12.80
2019-03-20T15:59:15.541Z,12.90
2019-03-20T16:01:48.401Z,12.80
2019-03-20T16:04:21.221Z,12.80
2019-03-20T16:06:53.680Z,12.90
2019-03-20T16:09:25.401Z,12.80
2019-03-20T16:11:57.961Z,12.70
2019-03-20T16:14:30.362Z,12.70
2019-03-20T16:17:03.530Z,12.80
2019-03-20T16:19:35.923Z,12.70
2019-03-20T16:22:09.026Z,12.70
2019-03-20T16:24:42.599Z,12.60
2019-03-20T16:27:15.643Z,12.60
2019-03-20T16:29:46.800Z,12.50
2019-03-20T16:32:19.840Z,12.60
2019-03-20T16:34:53.162Z,12.60
2019-03-20T16:37:26.211Z,12.50
2019-03-20T16:39:58.702Z,12.60
2019-03-20T16:42:31.181Z,12.50
2019-03-20T16:45:04.445Z,12.40
2019-03-20T16:47:36.821Z,12.50
2019-03-20T16:50:09.822Z,12.40
2019-03-20T16:52:42.701Z,12.40
2019-03-20T16:55:15.781Z,12.40
2019-03-20T16:57:48.365Z,12.40
2019-03-20T17:00:28.781Z,12.40
2019-03-20T17:03:01.946Z,12.40
2019-03-20T17:05:35.601Z,12.30
2019-03-20T17:08:09.181Z,12.30
2019-03-20T17:10:42.542Z,12.40
2019-03-20T17:13:14.882Z,12.20
2019-03-20T17:15:48.404Z,12.20
2019-03-20T17:18:21.041Z,12.30
2019-03-20T17:20:53.741Z,12.20
2019-03-20T17:23:26.061Z,12.10
2019-03-20T17:25:58.241Z,12.00
2019-03-20T17:28:31.000Z,12.10
2019-03-20T17:31:04.202Z,12.10
2019-03-20T17:33:37.221Z,12.00
2019-03-20T17:36:09.521Z,11.80
2019-03-20T17:38:42.481Z,11.60
2019-03-20T17:41:14.521Z,11.60
2019-03-20T17:43:48.061Z,11.50
2019-03-20T17:46:20.484Z,11.40
2019-03-20T17:48:53.284Z,11.40
2019-03-20T17:51:26.304Z,11.30
2019-03-20T17:53:59.588Z,11.10
2019-03-20T17:56:32.660Z,11.10
2019-03-20T17:59:05.821Z,11.10
2019-03-20T18:01:39.003Z,11.00
2019-03-20T18:04:12.542Z,10.90
2019-03-20T18:06:45.623Z,10.90
2019-03-20T18:09:16.868Z,10.80
2019-03-20T18:11:49.541Z,10.70
2019-03-20T18:14:22.321Z,10.70
2019-03-20T18:16:55.932Z,10.70
2019-03-20T18:19:28.160Z,10.60
2019-03-20T18:22:01.380Z,10.60
2019-03-20T18:24:33.951Z,10.50
2019-03-20T18:27:07.481Z,10.50
2019-03-20T18:29:39.901Z,10.50
2019-03-20T18:32:13.529Z,10.50
2019-03-20T18:34:46.544Z,10.40
2019-03-20T18:37:18.643Z,10.40
2019-03-20T18:39:51.663Z,10.40
2019-03-20T18:42:25.423Z,10.30
2019-03-20T18:44:58.565Z,10.20
2019-03-20T18:47:31.781Z,10.20
2019-03-20T18:50:05.861Z,10.10
2019-03-20T18:52:39.281Z,10.10
2019-03-20T18:55:13.345Z,10.10
2019-03-20T18:57:46.361Z,10.10
2019-03-20T19:00:23.242Z,10.10
2019-03-20T19:02:56.383Z,10.00
2019-03-20T19:05:34.622Z,10.00
2019-03-20T19:08:08.042Z,9.90
2019-03-20T19:10:40.341Z,9.90
2019-03-20T19:13:13.102Z,9.90
2019-03-20T19:15:45.492Z,9.90
2019-03-20T19:18:18.652Z,9.90
2019-03-20T19:20:51.687Z,9.90
2019-03-20T19:23:24.081Z,9.90
2019-03-20T19:25:57.687Z,9.90
2019-03-20T19:28:30.927Z,9.90
2019-03-20T19:31:03.540Z,9.80
2019-03-20T19:33:34.782Z,9.80
2019-03-20T19:36:08.081Z,9.70
2019-03-20T19:38:40.582Z,9.70
2019-03-20T19:41:13.581Z,9.70
2019-03-20T19:43:46.681Z,9.70
2019-03-20T19:46:19.161Z,9.70
2019-03-20T19:48:51.621Z,9.70
2019-03-20T19:51:24.621Z,9.60
2019-03-20T19:53:57.681Z,9.60
2019-03-20T19:56:29.901Z,9.60
2019-03-20T19:59:02.741Z,9.60
2019-03-20T20:01:35.790Z,9.60
2019-03-20T20:04:08.781Z,9.50
2019-03-20T20:06:41.102Z,9.50
2019-03-20T20:09:13.637Z,9.50
2019-03-20T20:11:46.803Z,9.50
2019-03-20T20:14:19.663Z,9.50
2019-03-20T20:16:51.681Z,9.50
2019-03-20T20:19:24.867Z,9.60
2019-03-20T20:21:58.521Z,9.70
2019-03-20T20:24:31.726Z,9.80
2019-03-20T20:27:04.761Z,9.80
2019-03-20T20:29:37.662Z,9.90
2019-03-20T20:32:10.402Z,9.90
2019-03-20T20:34:43.343Z,10.00
2019-03-20T20:37:15.582Z,10.00
2019-03-20T20:39:47.441Z,10.00
2019-03-20T20:42:20.741Z,10.00
2019-03-20T20:44:53.122Z,10.00
2019-03-20T20:47:26.103Z,10.00
2019-03-20T20:49:58.901Z,9.90
2019-03-20T20:52:31.841Z,9.90
2019-03-20T20:55:03.803Z,9.80
2019-03-20T20:57:36.622Z,9.80
2019-03-20T21:00:12.722Z,9.70
2019-03-20T21:02:45.261Z,9.70
2019-03-20T21:05:18.861Z,9.70
2019-03-20T21:07:52.747Z,9.60
2019-03-20T21:10:25.023Z,9.60
2019-03-20T21:12:58.043Z,9.50
2019-03-20T21:15:42.523Z,9.40
2019-03-20T21:18:58.821Z,9.40
2019-03-20T21:21:45.980Z,9.40
2019-03-20T21:24:25.744Z,9.30
2019-03-20T21:27:43.311Z,9.30
2019-03-20T21:30:47.463Z,9.20
2019-03-20T21:34:06.541Z,9.10
2019-03-20T21:37:30.141Z,9.00
2019-03-20T21:40:02.721Z,8.80
2019-03-20T21:43:19.801Z,8.90
2019-03-20T21:46:20.282Z,8.90
2019-03-20T21:48:53.241Z,8.80
2019-03-20T21:51:26.661Z,8.70
2019-03-20T21:54:42.542Z,8.80
2019-03-20T21:57:28.202Z,8.90
2019-03-20T22:00:37.861Z,8.80
2019-03-20T22:03:10.861Z,8.80
2019-03-20T22:06:21.184Z,8.80
2019-03-20T22:08:54.461Z,8.70
2019-03-20T22:12:14.981Z,8.60
2019-03-20T22:14:50.701Z,8.60
2019-03-20T22:18:05.251Z,8.50
2019-03-20T22:20:57.200Z,8.50
2019-03-20T22:24:07.681Z,8.40
2019-03-20T22:27:28.861Z,8.30
2019-03-20T22:30:01.801Z,8.40
2019-03-20T22:33:19.861Z,8.40
2019-03-20T22:36:18.282Z,8.30
2019-03-20T22:39:56.810Z,8.30
2019-03-20T22:42:41.487Z,8.20
2019-03-20T22:46:01.742Z,8.00
2019-03-20T22:49:03.481Z,7.90
2019-03-20T22:52:09.121Z,7.80
2019-03-20T22:55:27.241Z,7.80
2019-03-20T22:58:41.264Z,7.70
2019-03-20T23:01:15.482Z,7.60
2019-03-20T23:03:52.563Z,7.60
2019-03-20T23:06:24.782Z,7.60
2019-03-20T23:08:58.422Z,7.60
2019-03-20T23:11:31.161Z,7.70
2019-03-20T23:14:04.983Z,7.70
2019-03-20T23:16:38.061Z,7.70
2019-03-20T23:19:12.181Z,7.70
2019-03-20T23:21:46.413Z,7.70
2019-03-20T23:24:18.841Z,7.60
2019-03-20T23:26:52.702Z,7.60
2019-03-20T23:29:26.021Z,7.60
2019-03-20T23:31:58.605Z,7.50
2019-03-20T23:34:32.100Z,7.50
2019-03-20T23:37:05.205Z,7.40
2019-03-20T23:39:39.642Z,7.40
2019-03-20T23:42:13.322Z,7.30
2019-03-20T23:44:46.802Z,7.30
2019-03-20T23:47:22.061Z,7.30
2019-03-20T23:49:55.124Z,7.30
2019-03-20T23:52:28.021Z,7.20
2019-03-20T23:55:02.483Z,7.20
2019-03-20T23:57:35.760Z,7.30
